createdAt,value
2023-04-18T00:00:57.882Z,16.88
2023-04-18T00:03:24.834Z,18.90
2023-04-18T00:05:51.872Z,16.20
2023-04-18T00:08:18.372Z,17.52
2023-04-18T00:10:44.853Z,17.33
2023-04-18T00:13:12.112Z,19.10
2023-04-18T00:15:38.651Z,18.30
2023-04-18T00:18:06.083Z,16.48
2023-04-18T00:20:32.995Z,18.00
2023-04-18T00:23:00.662Z,17.00
2023-04-18T00:25:27.132Z,16.02
2023-04-18T00:27:53.815Z,15.27
2023-04-18T00:30:20.317Z,18.08
2023-04-18T00:32:46.853Z,16.60
2023-04-18T00:35:13.427Z,17.67
2023-04-18T00:37:39.983Z,16.77
2023-04-18T00:40:06.833Z,23.08
2023-04-18T00:42:33.717Z,17.58
2023-04-18T00:45:01.195Z,21.67
2023-04-18T00:47:27.731Z,20.63
2023-04-18T00:49:54.401Z,17.60
2023-04-18T00:52:20.862Z,16.50
2023-04-18T00:54:47.342Z,20.65
2023-04-18T00:57:13.893Z,19.60
2023-04-18T00:59:40.406Z,20.10
2023-04-18T01:02:07.056Z,16.73
2023-04-18T01:04:33.763Z,22.50
2023-04-18T01:07:01.381Z,20.67
2023-04-18T01:09:28.362Z,19.35
2023-04-18T01:11:54.964Z,22.35
2023-04-18T01:14:21.695Z,20.67
2023-04-18T01:16:51.144Z,20.58
2023-04-18T01:19:17.710Z,22.23
2023-04-18T01:21:44.196Z,23.27
2023-04-18T01:24:14.919Z,21.80
2023-04-18T01:26:43.632Z,19.35
2023-04-18T01:29:10.258Z,21.67
2023-04-18T01:31:37.389Z,20.92
2023-04-18T01:34:04.500Z,19.83
2023-04-18T01:36:31.985Z,25.08
2023-04-18T01:38:59.059Z,23.58
2023-04-18T01:41:25.725Z,22.50
2023-04-18T01:43:52.242Z,23.05
2023-04-18T01:46:18.781Z,26.20
2023-04-18T01:48:45.779Z,24.25
2023-04-18T01:51:12.302Z,25.48
2023-04-18T01:53:38.760Z,23.13
2023-04-18T01:56:05.511Z,26.40
2023-04-18T01:58:32.064Z,25.90
2023-04-18T02:00:58.543Z,26.15
2023-04-18T02:03:25.457Z,27.05
2023-04-18T02:05:52.072Z,25.00
2023-04-18T02:08:18.586Z,25.38
2023-04-18T02:10:45.273Z,26.10
2023-04-18T02:13:11.745Z,27.27
2023-04-18T02:15:38.232Z,28.48
2023-04-18T02:18:04.804Z,29.45
2023-04-18T02:20:34.863Z,27.45
2023-04-18T02:23:01.953Z,25.45
2023-04-18T02:25:29.299Z,28.33
2023-04-18T02:27:56.165Z,26.73
2023-04-18T02:30:23.249Z,28.15
2023-04-18T02:32:53.534Z,27.02
2023-04-18T02:35:20.507Z,27.00
2023-04-18T02:37:46.968Z,27.52
2023-04-18T02:40:13.704Z,31.23
2023-04-18T02:42:40.287Z,31.88
2023-04-18T02:45:07.625Z,32.53
2023-04-18T02:47:43.520Z,35.65
2023-04-18T02:50:18.087Z,29.75
2023-04-18T02:52:44.674Z,33.25
2023-04-18T02:55:11.124Z,31.52
2023-04-18T02:57:37.591Z,30.48
2023-04-18T03:00:06.435Z,30.05
2023-04-18T03:02:33.127Z,31.30
2023-04-18T03:04:59.751Z,31.02
2023-04-18T03:07:26.402Z,28.23
2023-04-18T03:09:52.888Z,32.38
2023-04-18T03:12:19.433Z,32.95
2023-04-18T03:14:45.924Z,32.75
2023-04-18T03:17:12.389Z,29.70
2023-04-18T03:19:38.909Z,33.72
2023-04-18T03:22:06.105Z,32.65
2023-04-18T03:24:32.588Z,29.13
2023-04-18T03:27:00.461Z,30.08
2023-04-18T03:29:27.087Z,36.92
2023-04-18T03:31:53.554Z,32.05
2023-04-18T03:34:20.403Z,32.25
2023-04-18T03:36:48.231Z,32.13
2023-04-18T03:39:14.857Z,35.33
2023-04-18T03:41:41.397Z,34.17
2023-04-18T03:44:08.889Z,39.97
2023-04-18T03:46:35.424Z,36.47
2023-04-18T03:49:01.984Z,39.15
2023-04-18T03:51:41.596Z,35.90
2023-04-18T03:54:08.098Z,38.33
2023-04-18T03:56:34.779Z,34.85
2023-04-18T03:59:01.322Z,36.28
2023-04-18T04:01:27.848Z,35.97
2023-04-18T04:03:54.559Z,31.55
2023-04-18T04:06:21.266Z,37.25
2023-04-18T04:08:47.732Z,34.85
2023-04-18T04:11:14.267Z,32.70
2023-04-18T04:13:40.798Z,37.97
2023-04-18T04:16:07.624Z,39.33
2023-04-18T04:18:34.141Z,39.05
2023-04-18T04:21:00.688Z,37.58
2023-04-18T04:23:27.184Z,50.08
2023-04-18T04:25:54.018Z,38.13
2023-04-18T04:28:23.812Z,38.80
2023-04-18T04:30:53.811Z,41.00
2023-04-18T04:33:20.554Z,38.45
2023-04-18T04:35:47.191Z,39.28
2023-04-18T04:38:15.261Z,36.72
2023-04-18T04:40:42.211Z,37.28
2023-04-18T04:43:12.806Z,39.33
2023-04-18T04:45:41.433Z,42.63
2023-04-18T04:48:08.410Z,35.33
2023-04-18T04:50:38.621Z,42.72
2023-04-18T04:53:06.327Z,37.55
2023-04-18T04:55:33.108Z,36.92
2023-04-18T04:57:59.718Z,46.30
2023-04-18T05:00:26.371Z,37.88
2023-04-18T05:02:55.773Z,39.97
2023-04-18T05:05:22.753Z,39.03
2023-04-18T05:07:49.302Z,38.78
2023-04-18T05:10:15.776Z,43.80
2023-04-18T05:12:42.258Z,40.63
2023-04-18T05:15:09.068Z,43.47
2023-04-18T05:17:35.642Z,46.40
2023-04-18T05:20:02.221Z,43.63
2023-04-18T05:22:28.778Z,40.78
2023-04-18T05:24:55.268Z,39.03
2023-04-18T05:27:21.818Z,42.28
2023-04-18T05:29:50.232Z,41.72
2023-04-18T05:32:16.853Z,42.83
2023-04-18T05:34:43.429Z,41.05
2023-04-18T05:37:09.902Z,46.38
2023-04-18T05:39:36.399Z,47.53
2023-04-18T05:42:03.354Z,48.10
2023-04-18T05:44:30.198Z,38.45
2023-04-18T05:46:56.658Z,44.85
2023-04-18T05:49:23.676Z,46.88
2023-04-18T05:51:50.619Z,52.55
2023-04-18T05:54:17.139Z,40.50
2023-04-18T05:56:43.798Z,39.40
2023-04-18T05:59:10.503Z,38.60
2023-04-18T06:01:36.959Z,38.03
2023-04-18T06:04:03.663Z,35.83
2023-04-18T06:06:31.421Z,43.03
2023-04-18T06:08:57.959Z,38.78
2023-04-18T06:11:25.100Z,44.22
2023-04-18T06:13:51.600Z,44.03
2023-04-18T06:16:18.169Z,48.33
2023-04-18T06:18:44.761Z,43.47
2023-04-18T06:21:11.218Z,36.92
2023-04-18T06:23:38.499Z,47.13
2023-04-18T06:26:05.065Z,39.90
2023-04-18T06:28:31.615Z,36.78
2023-04-18T06:30:58.118Z,38.55
2023-04-18T06:33:24.633Z,40.40
2023-04-18T06:35:51.139Z,43.97
2023-04-18T06:38:17.647Z,44.05
2023-04-18T06:40:44.211Z,41.85
2023-04-18T06:43:10.738Z,45.80
2023-04-18T06:45:37.242Z,39.80
2023-04-18T06:48:04.086Z,40.72
2023-04-18T06:50:30.758Z,43.42
2023-04-18T06:52:57.252Z,37.63
2023-04-18T06:55:23.763Z,39.55
2023-04-18T06:57:50.288Z,42.25
2023-04-18T07:00:16.983Z,37.22
2023-04-18T07:02:43.668Z,37.90
2023-04-18T07:05:10.795Z,38.95
2023-04-18T07:07:37.353Z,40.15
2023-04-18T07:10:04.392Z,36.75
2023-04-18T07:12:30.930Z,39.30
2023-04-18T07:14:57.491Z,37.38
2023-04-18T07:17:24.096Z,35.50
2023-04-18T07:19:50.594Z,33.38
2023-04-18T07:22:17.076Z,37.72
2023-04-18T07:24:44.175Z,32.85
2023-04-18T07:27:10.652Z,36.00
2023-04-18T07:29:37.117Z,36.10
2023-04-18T07:32:04.268Z,34.30
2023-04-18T07:34:31.485Z,37.13
2023-04-18T07:36:58.037Z,35.65
2023-04-18T07:39:24.545Z,35.83
2023-04-18T07:41:51.141Z,33.05
2023-04-18T07:44:18.231Z,38.60
2023-04-18T07:46:44.862Z,31.13
2023-04-18T07:49:11.607Z,29.50
2023-04-18T07:51:38.223Z,28.27
2023-04-18T07:54:04.756Z,28.33
2023-04-18T07:56:31.231Z,30.02
2023-04-18T07:58:57.748Z,33.42
2023-04-18T08:01:27.300Z,27.92
2023-04-18T08:03:55.157Z,24.92
2023-04-18T08:06:21.760Z,26.92
2023-04-18T08:08:48.305Z,28.40
2023-04-18T08:11:14.774Z,29.63
2023-04-18T08:13:41.257Z,24.40
2023-04-18T08:16:07.868Z,27.15
2023-04-18T08:18:35.093Z,28.23
2023-04-18T08:21:01.560Z,24.30
2023-04-18T08:23:28.260Z,22.80
2023-04-18T08:25:54.790Z,33.33
2023-04-18T08:28:21.471Z,24.77
2023-04-18T08:30:49.180Z,28.05
2023-04-18T08:33:16.180Z,25.92
2023-04-18T08:35:43.091Z,26.42
2023-04-18T08:38:09.855Z,23.80
2023-04-18T08:40:37.435Z,23.55
2023-04-18T08:43:04.925Z,32.58
2023-04-18T08:45:31.610Z,25.35
2023-04-18T08:48:01.398Z,32.25
2023-04-18T08:50:27.972Z,24.55
2023-04-18T08:52:54.549Z,20.35
2023-04-18T08:55:22.357Z,25.50
2023-04-18T08:57:50.346Z,24.08
2023-04-18T09:00:17.923Z,19.95
2023-04-18T09:02:44.911Z,19.58
2023-04-18T09:05:16.580Z,20.20
2023-04-18T09:07:43.160Z,21.13
2023-04-18T09:10:10.074Z,21.13
2023-04-18T09:12:46.345Z,19.63
2023-04-18T09:15:15.641Z,22.02
2023-04-18T09:17:45.339Z,17.67
2023-04-18T09:20:12.934Z,19.08
2023-04-18T09:22:52.682Z,20.23
2023-04-18T09:25:34.963Z,23.25
2023-04-18T09:28:02.173Z,21.40
2023-04-18T09:30:29.832Z,18.85
2023-04-18T09:33:00.303Z,21.80
2023-04-18T09:35:27.199Z,18.00
2023-04-18T09:37:53.675Z,21.60
2023-04-18T09:40:20.565Z,25.95
2023-04-18T09:42:48.104Z,22.73
2023-04-18T09:45:15.444Z,19.35
2023-04-18T09:47:42.081Z,17.60
2023-04-18T09:50:09.492Z,21.40
2023-04-18T09:52:40.106Z,19.38
2023-04-18T09:55:08.651Z,18.98
2023-04-18T09:57:35.830Z,19.75
2023-04-18T10:00:16.294Z,23.58
2023-04-18T10:02:50.330Z,21.63
2023-04-18T10:05:19.511Z,19.25
2023-04-18T10:07:48.903Z,24.10
2023-04-18T10:10:15.790Z,18.38
2023-04-18T10:12:42.403Z,18.25
2023-04-18T10:15:09.727Z,20.17
2023-04-18T10:18:14.845Z,18.42
2023-04-18T10:20:41.732Z,19.70
2023-04-18T10:23:38.095Z,17.20
2023-04-18T10:26:08.424Z,17.60
2023-04-18T10:28:53.621Z,17.80
2023-04-18T10:31:27.484Z,18.85
2023-04-18T10:36:30.146Z,18.20
2023-04-18T10:39:00.816Z,19.33
2023-04-18T10:41:27.978Z,16.70
2023-04-18T10:44:09.353Z,18.00
2023-04-18T10:46:36.757Z,20.27
2023-04-18T10:49:34.178Z,15.88
2023-04-18T10:52:01.384Z,15.88
2023-04-18T10:54:39.267Z,14.80
2023-04-18T10:57:07.524Z,18.98
2023-04-18T10:59:37.480Z,15.48
2023-04-18T11:02:33.245Z,15.82
2023-04-18T11:05:01.222Z,17.90
2023-04-18T11:07:37.207Z,17.35
2023-04-18T11:10:04.873Z,14.23
2023-04-18T11:12:32.647Z,16.98
2023-04-18T11:15:01.557Z,16.92
2023-04-18T11:17:29.505Z,17.80
2023-04-18T11:20:00.678Z,14.63
2023-04-18T11:22:27.236Z,18.13
2023-04-18T11:25:07.932Z,12.77
2023-04-18T11:27:34.466Z,11.80
2023-04-18T11:30:01.125Z,12.40
2023-04-18T11:32:27.798Z,13.23
2023-04-18T11:34:54.635Z,13.27
2023-04-18T11:37:21.454Z,12.75
2023-04-18T11:39:48.019Z,11.95
2023-04-18T11:42:14.525Z,11.30
2023-04-18T11:44:44.907Z,13.02
2023-04-18T11:47:24.606Z,14.82
2023-04-18T11:50:00.757Z,16.65
2023-04-18T11:52:28.406Z,11.57
2023-04-18T11:54:55.047Z,11.85
2023-04-18T11:57:39.906Z,15.55
2023-04-18T12:00:07.580Z,14.73
2023-04-18T12:02:45.012Z,13.98
2023-04-18T12:05:14.542Z,12.95
2023-04-18T12:07:42.360Z,14.55
2023-04-18T12:10:20.924Z,11.48
2023-04-18T12:12:51.202Z,11.48
2023-04-18T12:15:18.055Z,14.55
2023-04-18T12:17:45.409Z,13.60
2023-04-18T12:20:13.416Z,14.65
2023-04-18T12:22:44.750Z,13.57
2023-04-18T12:25:26.929Z,13.43
2023-04-18T12:28:00.880Z,11.15
2023-04-18T12:30:28.770Z,11.82
2023-04-18T12:32:59.827Z,9.23
2023-04-18T12:35:26.620Z,10.20
2023-04-18T12:37:54.570Z,10.57
2023-04-18T12:40:21.934Z,10.70
2023-04-18T12:42:48.791Z,9.13
2023-04-18T12:45:15.660Z,8.20
2023-04-18T12:47:43.420Z,8.80
2023-04-18T12:50:11.602Z,9.75
2023-04-18T12:52:39.352Z,8.38
2023-04-18T12:55:06.950Z,8.85
2023-04-18T12:57:33.520Z,11.00
2023-04-18T13:00:00.148Z,7.28
2023-04-18T13:02:29.046Z,7.43
2023-04-18T13:04:56.493Z,8.38
2023-04-18T13:07:23.032Z,8.57
2023-04-18T13:09:49.491Z,12.30
2023-04-18T13:12:15.985Z,11.05
2023-04-18T13:14:42.565Z,10.68
2023-04-18T13:17:09.276Z,9.60
2023-04-18T13:19:35.894Z,12.57
2023-04-18T13:22:03.069Z,10.25
2023-04-18T13:24:29.575Z,9.52
2023-04-18T13:26:56.572Z,8.35
2023-04-18T13:29:23.115Z,9.07
2023-04-18T13:31:49.697Z,9.15
2023-04-18T13:34:16.219Z,14.93
2023-04-18T13:36:42.970Z,11.32
2023-04-18T13:39:10.555Z,7.55
2023-04-18T13:41:37.059Z,8.40
2023-04-18T13:44:03.626Z,7.90
2023-04-18T13:46:30.999Z,9.63
2023-04-18T13:48:57.643Z,8.73
2023-04-18T13:51:24.183Z,9.43
2023-04-18T13:53:51.604Z,6.78
2023-04-18T13:56:18.074Z,6.15
2023-04-18T13:58:44.613Z,6.93
2023-04-18T14:01:11.873Z,6.57
2023-04-18T14:03:39.959Z,5.88
2023-04-18T14:06:08.059Z,7.07
2023-04-18T14:08:34.553Z,7.30
2023-04-18T14:11:01.022Z,6.93
2023-04-18T14:13:27.519Z,7.22
2023-04-18T14:15:54.158Z,7.60
2023-04-18T14:18:21.813Z,6.35
2023-04-18T14:20:48.642Z,11.88
2023-04-18T14:23:15.910Z,6.80
2023-04-18T14:25:42.618Z,7.43
2023-04-18T14:28:10.930Z,5.97
2023-04-18T14:30:38.089Z,6.32
2023-04-18T14:33:04.816Z,7.88
2023-04-18T14:35:31.792Z,7.22
2023-04-18T14:37:58.286Z,9.32
2023-04-18T14:40:24.772Z,7.63
2023-04-18T14:42:51.296Z,10.25
2023-04-18T14:45:17.847Z,8.25
2023-04-18T14:47:44.403Z,8.70
2023-04-18T14:50:14.103Z,10.10
2023-04-18T14:52:40.913Z,8.00
2023-04-18T14:55:08.339Z,8.73
2023-04-18T14:57:36.157Z,6.53
2023-04-18T15:00:05.413Z,5.97
2023-04-18T15:02:32.223Z,6.90
2023-04-18T15:04:59.209Z,6.22
2023-04-18T15:07:26.134Z,6.97
2023-04-18T15:09:52.631Z,6.85
2023-04-18T15:12:19.182Z,6.60
2023-04-18T15:14:45.713Z,10.68
2023-04-18T15:17:12.154Z,6.07
2023-04-18T15:19:38.654Z,6.75
2023-04-18T15:22:05.174Z,7.22
2023-04-18T15:24:31.641Z,5.53
2023-04-18T15:26:58.766Z,6.38
2023-04-18T15:29:25.379Z,8.00
2023-04-18T15:31:51.938Z,6.50
2023-04-18T15:34:18.520Z,6.22
2023-04-18T15:36:46.865Z,7.95
2023-04-18T15:39:13.714Z,11.38
2023-04-18T15:41:42.083Z,6.72
2023-04-18T15:44:08.615Z,6.95
2023-04-18T15:46:36.717Z,9.25
2023-04-18T15:49:03.272Z,7.32
2023-04-18T15:51:30.239Z,7.40
2023-04-18T15:53:56.752Z,9.30
2023-04-18T15:56:27.550Z,7.22
2023-04-18T15:58:57.133Z,10.25
2023-04-18T16:01:23.767Z,8.18
2023-04-18T16:03:50.608Z,8.43
2023-04-18T16:06:19.008Z,8.07
2023-04-18T16:08:45.572Z,8.02
2023-04-18T16:11:12.069Z,9.65
2023-04-18T16:13:38.657Z,10.30
2023-04-18T16:16:05.761Z,7.95
2023-04-18T16:18:32.440Z,8.63
2023-04-18T16:20:59.005Z,10.60
2023-04-18T16:23:26.113Z,8.70
2023-04-18T16:25:55.207Z,8.43
2023-04-18T16:28:22.066Z,8.80
2023-04-18T16:30:48.658Z,8.70
2023-04-18T16:33:15.606Z,11.23
2023-04-18T16:35:42.227Z,7.93
2023-04-18T16:38:08.715Z,8.45
2023-04-18T16:40:35.656Z,7.70
2023-04-18T16:43:02.288Z,10.05
2023-04-18T16:45:28.831Z,11.25
2023-04-18T16:47:55.541Z,7.15
2023-04-18T16:50:22.648Z,8.27
2023-04-18T16:52:49.365Z,7.43
2023-04-18T16:55:16.011Z,6.38
2023-04-18T16:57:42.543Z,7.30
2023-04-18T17:00:10.198Z,7.22
2023-04-18T17:02:39.712Z,8.70
2023-04-18T17:05:06.662Z,7.35
2023-04-18T17:07:33.262Z,6.65
2023-04-18T17:09:59.753Z,6.80
2023-04-18T17:12:26.504Z,6.43
2023-04-18T17:14:52.994Z,8.93
2023-04-18T17:17:19.673Z,7.15
2023-04-18T17:19:46.484Z,6.68
2023-04-18T17:22:12.971Z,6.03
2023-04-18T17:24:39.539Z,8.50
2023-04-18T17:27:06.042Z,8.82
2023-04-18T17:29:32.595Z,7.45
2023-04-18T17:31:59.209Z,5.82
2023-04-18T17:34:25.865Z,6.15
2023-04-18T17:36:52.362Z,9.55
2023-04-18T17:39:18.915Z,6.40
2023-04-18T17:41:45.880Z,11.10
2023-04-18T17:44:12.331Z,7.72
2023-04-18T17:46:39.018Z,6.10
2023-04-18T17:49:05.584Z,7.15
2023-04-18T17:51:32.085Z,10.30
2023-04-18T17:53:58.740Z,6.78
2023-04-18T17:56:25.558Z,7.32
2023-04-18T17:58:52.616Z,7.85
2023-04-18T18:01:21.090Z,8.68
2023-04-18T18:03:48.314Z,8.43
2023-04-18T18:06:15.353Z,6.22
2023-04-18T18:08:43.013Z,6.57
2023-04-18T18:11:10.592Z,6.50
2023-04-18T18:13:38.859Z,12.18
2023-04-18T18:16:06.115Z,9.43
2023-04-18T18:18:32.712Z,8.20
2023-04-18T18:20:59.178Z,7.45
2023-04-18T18:23:25.793Z,7.75
2023-04-18T18:25:52.420Z,7.63
2023-04-18T18:28:19.166Z,7.18
2023-04-18T18:30:45.677Z,6.85
2023-04-18T18:33:12.170Z,9.15
2023-04-18T18:35:38.727Z,10.27
2023-04-18T18:38:05.366Z,8.20
2023-04-18T18:40:31.925Z,8.38
2023-04-18T18:42:59.338Z,14.10
2023-04-18T18:45:26.340Z,8.65
2023-04-18T18:47:52.950Z,11.02
2023-04-18T18:50:19.572Z,8.23
2023-04-18T18:52:46.147Z,11.32
2023-04-18T18:55:12.674Z,9.52
2023-04-18T18:57:39.192Z,8.00
2023-04-18T19:00:09.654Z,10.35
2023-04-18T19:02:36.348Z,10.85
2023-04-18T19:05:03.767Z,9.25
2023-04-18T19:07:30.541Z,8.05
2023-04-18T19:09:57.085Z,7.75
2023-04-18T19:12:23.552Z,8.27
2023-04-18T19:14:50.680Z,7.68
2023-04-18T19:17:19.118Z,9.43
2023-04-18T19:19:45.679Z,8.18
2023-04-18T19:22:12.247Z,8.77
2023-04-18T19:24:38.785Z,8.73
2023-04-18T19:27:05.298Z,8.85
2023-04-18T19:29:32.879Z,7.80
2023-04-18T19:31:59.634Z,13.05
2023-04-18T19:34:26.118Z,8.48
2023-04-18T19:36:52.644Z,10.43
2023-04-18T19:39:19.143Z,10.20
2023-04-18T19:41:45.992Z,11.70
2023-04-18T19:44:12.534Z,9.70
2023-04-18T19:46:39.308Z,8.00
2023-04-18T19:49:05.884Z,8.25
2023-04-18T19:51:32.423Z,10.27
2023-04-18T19:53:58.945Z,9.45
2023-04-18T19:56:25.430Z,8.45
2023-04-18T19:58:51.991Z,9.55
2023-04-18T20:01:19.153Z,15.05
2023-04-18T20:03:47.022Z,9.68
2023-04-18T20:06:13.768Z,17.85
2023-04-18T20:08:45.010Z,12.40
2023-04-18T20:11:12.031Z,9.93
2023-04-18T20:13:38.571Z,9.85
2023-04-18T20:16:05.589Z,10.88
2023-04-18T20:18:33.832Z,11.95
2023-04-18T20:21:00.760Z,17.08
2023-04-18T20:23:27.274Z,10.93
2023-04-18T20:25:53.754Z,14.38
2023-04-18T20:28:20.536Z,13.88
2023-04-18T20:30:47.961Z,12.10
2023-04-18T20:33:14.606Z,19.25
2023-04-18T20:35:41.518Z,19.15
2023-04-18T20:38:09.810Z,12.35
2023-04-18T20:40:37.156Z,13.07
2023-04-18T20:43:03.704Z,12.75
2023-04-18T20:45:30.203Z,11.45
2023-04-18T20:47:56.845Z,14.02
2023-04-18T20:50:23.422Z,12.07
2023-04-18T20:52:49.882Z,11.02
2023-04-18T20:55:18.210Z,10.65
2023-04-18T20:57:44.906Z,13.80
2023-04-18T21:00:13.866Z,11.82
2023-04-18T21:02:41.444Z,12.48
2023-04-18T21:05:08.254Z,12.27
2023-04-18T21:07:35.306Z,11.40
2023-04-18T21:10:04.927Z,11.23
2023-04-18T21:12:31.420Z,11.27
2023-04-18T21:14:57.891Z,12.45
2023-04-18T21:17:25.604Z,15.45
2023-04-18T21:19:52.539Z,12.43
2023-04-18T21:22:19.052Z,13.10
2023-04-18T21:24:46.724Z,11.75
2023-04-18T21:27:13.738Z,12.10
2023-04-18T21:29:40.651Z,13.63
2023-04-18T21:32:07.124Z,13.52
2023-04-18T21:34:33.673Z,13.07
2023-04-18T21:37:00.490Z,13.68
2023-04-18T21:39:27.364Z,17.00
2023-04-18T21:41:53.842Z,13.07
2023-04-18T21:44:20.361Z,13.20
2023-04-18T21:46:46.922Z,17.35
2023-04-18T21:49:13.489Z,13.95
2023-04-18T21:51:39.986Z,13.18
2023-04-18T21:54:07.650Z,16.00
2023-04-18T21:56:34.210Z,13.07
2023-04-18T21:59:00.900Z,12.02
2023-04-18T22:01:27.454Z,12.35
2023-04-18T22:03:54.077Z,15.15
2023-04-18T22:06:20.736Z,15.10
2023-04-18T22:08:48.140Z,20.40
2023-04-18T22:11:15.725Z,13.52
2023-04-18T22:13:44.532Z,14.77
2023-04-18T22:16:11.016Z,15.73
2023-04-18T22:18:38.165Z,16.20
2023-04-18T22:21:04.795Z,12.90
2023-04-18T22:23:31.376Z,13.10
2023-04-18T22:25:57.917Z,15.02
2023-04-18T22:28:24.507Z,14.05
2023-04-18T22:30:51.283Z,12.50
2023-04-18T22:33:17.895Z,15.93
2023-04-18T22:35:46.146Z,15.52
2023-04-18T22:38:12.613Z,15.32
2023-04-18T22:40:39.112Z,15.60
2023-04-18T22:43:05.562Z,13.93
2023-04-18T22:45:33.586Z,13.18
2023-04-18T22:48:00.431Z,21.55
2023-04-18T22:50:27.354Z,12.25
2023-04-18T22:52:53.856Z,13.07
2023-04-18T22:55:20.527Z,14.43
2023-04-18T22:57:47.071Z,15.18
2023-04-18T23:00:14.024Z,15.23
2023-04-18T23:02:40.808Z,13.80
2023-04-18T23:05:07.946Z,16.15
2023-04-18T23:07:34.451Z,12.48
2023-04-18T23:10:00.910Z,13.55
2023-04-18T23:12:27.741Z,15.73
2023-04-18T23:14:54.207Z,13.50
2023-04-18T23:17:20.990Z,16.10
2023-04-18T23:19:47.499Z,14.70
2023-04-18T23:22:13.970Z,16.27
2023-04-18T23:24:40.583Z,14.38
2023-04-18T23:27:07.146Z,13.68
2023-04-18T23:29:37.695Z,12.48
2023-04-18T23:32:04.708Z,16.17
2023-04-18T23:34:31.829Z,16.58
2023-04-18T23:36:58.295Z,14.75
2023-04-18T23:39:26.239Z,14.82
2023-04-18T23:41:52.696Z,17.75
2023-04-18T23:44:19.152Z,12.45
2023-04-18T23:46:45.928Z,16.23
2023-04-18T23:49:12.437Z,16.00
2023-04-18T23:51:38.884Z,16.80
2023-04-18T23:54:05.572Z,18.60
2023-04-18T23:56:32.171Z,16.45
2023-04-18T23:58:58.645Z,19.70
